Time;durP1;ratioP1;P1;durP2;ratioP2;P2;SDS_P1;SDS_P2;PMS_P1;PMS_P2;Temp;Humidity;BMP_temperature;BMP_pressure;BME280_temperature;BME280_humidity;BME280_pressure;Samples;Min_cycle;Max_cycle;Signal;HPM_P1;HPM_P2
2024/01/02 00:01:55;;;;;;;5.13;2.28;;;6.00;66.20;;;0.83;100.00;95109.88;4984426;28;20239;-52
2024/01/02 00:04:21;;;;;;;4.75;2.03;;;5.90;66.10;;;0.81;100.00;95117.16;4990811;28;20120;-49
2024/01/02 00:06:50;;;;;;;6.60;2.17;;;5.90;66.30;;;0.81;100.00;95111.91;4988796;28;20029;-50
2024/01/02 00:09:16;;;;;;;3.45;1.77;;;5.90;66.30;;;0.86;100.00;95109.44;4985231;28;20389;-53
2024/01/02 00:11:43;;;;;;;3.17;1.45;;;5.90;66.50;;;0.87;100.00;95098.72;4986839;28;20045;-54
2024/01/02 00:14:09;;;;;;;4.18;2.08;;;5.90;66.60;;;0.86;100.00;95105.00;4986021;28;20032;-54
2024/01/02 00:16:35;;;;;;;5.07;1.88;;;5.90;66.40;;;0.81;100.00;95102.22;4985636;28;20052;-53
2024/01/02 00:19:01;;;;;;;3.30;1.73;;;5.90;66.30;;;0.81;100.00;95096.97;4987940;28;20477;-55
2024/01/02 00:21:27;;;;;;;3.28;1.70;;;5.90;66.40;;;0.83;100.00;95094.94;4986605;28;20468;-52
2024/01/02 00:23:52;;;;;;;4.90;1.83;;;5.90;66.30;;;0.82;100.00;95088.09;4989669;28;20040;-53
2024/01/02 00:26:18;;;;;;;3.05;1.67;;;5.90;66.40;;;0.80;100.00;95086.72;4986112;28;20507;-56
2024/01/02 00:28:45;;;;;;;2.63;1.80;;;5.80;66.30;;;0.75;100.00;95070.81;4990002;28;20041;-52
2024/01/02 00:31:10;;;;;;;3.08;1.80;;;5.80;66.20;;;0.74;100.00;95071.84;4990721;28;20037;-55
2024/01/02 00:33:36;;;;;;;3.65;1.75;;;5.80;66.20;;;0.74;100.00;95061.34;4981721;28;20026;-53
2024/01/02 00:36:03;;;;;;;3.13;1.55;;;5.80;66.30;;;0.71;100.00;95056.53;4991296;28;20484;-51
2024/01/02 00:38:29;;;;;;;2.95;1.40;;;5.80;66.20;;;0.63;100.00;95053.19;4981498;28;20049;-55
2024/01/02 00:40:54;;;;;;;2.33;1.33;;;5.80;66.30;;;0.64;100.00;95051.34;4990616;28;20488;-52
2024/01/02 00:43:20;;;;;;;2.95;1.50;;;5.80;66.30;;;0.64;100.00;95046.13;4986634;28;20030;-54
2024/01/02 00:45:46;;;;;;;5.28;1.58;;;5.70;66.30;;;0.66;100.00;95049.31;4989836;28;20052;-53
2024/01/02 00:48:12;;;;;;;2.63;1.60;;;5.70;66.40;;;0.68;100.00;95034.16;4989507;28;20022;-55
2024/01/02 00:50:38;;;;;;;4.15;1.88;;;5.70;66.50;;;0.71;100.00;95030.31;4985094;28;20052;-50
2024/01/02 00:53:05;;;;;;;2.75;1.65;;;5.80;66.50;;;0.74;100.00;95027.25;4984232;28;20137;-50
2024/01/02 00:55:31;;;;;;;5.32;1.65;;;5.80;66.60;;;0.77;100.00;95017.16;4985902;28;20374;-51
2024/01/02 00:57:57;;;;;;;2.92;1.45;;;5.80;66.70;;;0.81;100.00;95007.03;4989662;28;20028;-55
2024/01/02 01:00:23;;;;;;;1.65;1.30;;;5.80;66.70;;;0.85;100.00;95010.81;4985838;28;20030;-54
2024/01/02 01:02:49;;;;;;;3.42;1.00;;;5.90;66.70;;;0.88;100.00;95011.19;4991636;28;20036;-55
2024/01/02 01:05:15;;;;;;;1.63;1.20;;;5.90;66.70;;;0.96;100.00;95009.28;4988471;28;20092;-53
2024/01/02 01:07:41;;;;;;;3.92;0.98;;;5.90;66.80;;;1.03;100.00;95013.44;4988721;28;20415;-52
2024/01/02 01:10:07;;;;;;;1.75;1.15;;;6.00;66.80;;;1.09;100.00;95009.94;4986860;28;20220;-50
2024/01/02 01:12:33;;;;;;;3.33;1.20;;;6.00;66.70;;;1.15;100.00;95003.03;4986196;28;20428;-52
2024/01/02 01:14:59;;;;;;;2.13;0.90;;;6.10;66.60;;;1.22;100.00;95000.31;4987076;28;20485;-55
2024/01/02 01:17:25;;;;;;;3.40;0.90;;;6.10;66.50;;;1.31;100.00;94991.91;4985188;28;20029;-52
2024/01/02 01:19:50;;;;;;;1.80;1.17;;;6.20;66.50;;;1.38;100.00;94981.38;4990461;28;20022;-51
2024/01/02 01:22:17;;;;;;;2.38;1.20;;;6.30;66.60;;;1.43;100.00;94975.44;4986551;28;20030;-55
2024/01/02 01:24:43;;;;;;;3.45;1.08;;;6.30;66.30;;;1.43;100.00;94970.97;4990347;28;20036;-52
2024/01/02 01:27:09;;;;;;;2.97;0.80;;;6.30;66.20;;;1.45;100.00;94970.78;4985216;28;20031;-52
2024/01/02 01:29:34;;;;;;;2.88;0.90;;;6.40;66.10;;;1.52;100.00;94967.03;4988312;28;20045;-55
2024/01/02 01:32:00;;;;;;;1.17;0.85;;;6.40;66.00;;;1.58;100.00;94960.88;4987888;28;20025;-55
2024/01/02 01:34:26;;;;;;;2.35;1.20;;;6.50;66.00;;;1.65;100.00;94960.00;4987857;28;20112;-53
2024/01/02 01:36:54;;;;;;;3.13;0.70;;;6.50;65.80;;;1.64;100.00;94967.06;4988432;28;20109;-54
2024/01/02 01:39:20;;;;;;;2.00;1.08;;;6.60;65.80;;;1.65;100.00;94962.63;4987756;28;20034;-55
2024/01/02 01:41:46;;;;;;;1.67;1.10;;;6.60;65.60;;;1.62;100.00;94956.78;4987589;28;20025;-52
2024/01/02 01:44:12;;;;;;;2.22;0.90;;;6.60;65.50;;;1.64;100.00;94967.06;4990870;28;20026;-52
2024/01/02 01:46:41;;;;;;;2.40;1.10;;;6.60;65.40;;;1.65;100.00;94968.66;4986692;28;20133;-52
2024/01/02 01:49:11;;;;;;;1.60;0.80;;;6.60;66.00;;;1.65;100.00;94963.41;4988135;28;20099;-50
2024/01/02 01:51:42;;;;;;;1.85;0.77;;;6.70;65.30;;;1.62;100.00;94974.38;4983807;28;20031;-53
2024/01/02 01:54:12;;;;;;;2.63;0.98;;;6.70;65.20;;;1.64;100.00;94968.91;4990321;28;20030;-56
2024/01/02 01:56:40;;;;;;;1.45;0.98;;;6.70;65.20;;;1.67;100.00;94971.09;4983442;28;20026;-53
2024/01/02 01:59:08;;;;;;;1.67;0.82;;;6.70;65.20;;;1.69;100.00;94966.41;4990070;28;20127;-50
2024/01/02 02:01:36;;;;;;;1.98;1.00;;;6.70;65.20;;;1.72;100.00;94968.56;4982073;28;20042;-51
2024/01/02 02:04:03;;;;;;;2.25;0.90;;;6.70;65.10;;;1.74;100.00;94977.03;4985688;28;20084;-53
2024/01/02 02:06:29;;;;;;;1.10;1.00;;;6.70;65.00;;;1.80;99.37;94974.31;4989542;28;20025;-50
2024/01/02 02:08:55;;;;;;;1.23;0.90;;;6.80;65.00;;;1.88;100.00;94975.84;4986394;28;20084;-51
2024/01/02 02:11:21;;;;;;;2.70;1.00;;;6.80;65.00;;;1.92;100.00;94968.31;5003402;23;20002;-54
2024/01/02 02:13:48;;;;;;;2.13;0.93;;;6.80;65.20;;;1.94;99.88;94958.34;4996414;28;20583;-56
2024/01/02 02:16:15;;;;;;;1.67;0.70;;;6.80;64.90;;;1.95;99.98;94952.09;4999284;28;20056;-52
2024/01/02 02:18:41;;;;;;;1.80;0.90;;;6.90;64.90;;;1.99;97.63;94959.28;5008353;28;20108;-57
2024/01/02 02:21:07;;;;;;;1.63;0.70;;;7.00;64.80;;;2.08;98.06;94954.50;4999663;28;20030;-54
2024/01/02 02:23:33;;;;;;;0.70;0.70;;;7.00;64.70;;;2.12;98.98;94960.91;4976789;28;20531;-54
2024/01/02 02:25:59;;;;;;;1.73;1.00;;;7.10;64.70;;;2.15;97.60;94949.16;4978624;28;20036;-51
2024/01/02 02:28:25;;;;;;;1.92;0.68;;;7.00;64.40;;;2.20;96.82;94952.69;4987319;28;20025;-51
2024/01/02 02:30:51;;;;;;;1.83;0.73;;;7.10;64.40;;;2.28;95.33;94943.66;4986396;28;20029;-54
2024/01/02 02:33:17;;;;;;;2.55;0.70;;;7.20;64.40;;;2.39;92.80;94931.56;4982951;28;20069;-56
2024/01/02 02:35:43;;;;;;;0.90;0.60;;;7.20;64.20;;;2.50;94.12;94934.16;4990919;28;20030;-55
2024/01/02 02:38:09;;;;;;;1.02;0.70;;;7.30;64.10;;;2.57;91.93;94928.00;4981729;28;20025;-53
2024/01/02 02:40:37;;;;;;;4.78;0.90;;;7.40;64.00;;;2.65;91.54;94928.44;4990725;28;20026;-54
2024/01/02 02:43:04;;;;;;;0.80;0.70;;;7.40;63.80;;;2.70;91.13;94923.31;4981404;28;20029;-54
2024/01/02 02:45:30;;;;;;;1.98;0.80;;;7.50;63.70;;;2.77;90.71;94918.72;4987786;28;20404;-56
2024/01/02 02:47:55;;;;;;;4.53;0.82;;;7.60;63.50;;;2.89;90.10;94910.81;4976881;28;20018;-53
2024/01/02 02:50:21;;;;;;;0.70;0.50;;;7.60;63.30;;;3.00;88.79;94911.81;4981370;28;20025;-52
2024/01/02 02:52:47;;;;;;;2.88;1.50;;;7.70;63.10;;;3.11;87.68;94912.81;4984533;28;20037;-55
2024/01/02 02:55:13;;;;;;;2.40;1.70;;;7.80;62.90;;;3.17;87.82;94911.88;4987538;28;20572;-54
2024/01/02 02:57:39;;;;;;;4.03;1.10;;;7.80;62.80;;;3.20;87.00;94914.84;4985029;28;20029;-55
2024/01/02 03:00:06;;;;;;;1.35;0.80;;;7.90;62.70;;;3.22;86.99;94909.31;4981157;28;20167;-58
2024/01/02 03:02:32;;;;;;;1.08;0.68;;;8.00;62.40;;;3.24;87.33;94909.91;4979072;28;20030;-57
2024/01/02 03:04:58;;;;;;;1.27;0.70;;;8.00;62.20;;;3.25;87.33;94909.66;4983666;28;20026;-55
2024/01/02 03:07:25;;;;;;;1.00;0.70;;;8.10;62.20;;;3.28;86.77;94897.84;4981147;28;20168;-56
2024/01/02 03:09:50;;;;;;;0.82;0.80;;;8.10;62.00;;;3.30;87.83;94892.38;4982647;28;20155;-57
2024/01/02 03:12:16;;;;;;;2.92;0.75;;;8.10;61.80;;;3.28;87.16;94892.59;4988673;28;20155;-55
2024/01/02 03:14:42;;;;;;;1.27;0.68;;;8.10;61.70;;;3.30;86.81;94892.38;4978106;28;20029;-55
2024/01/02 03:17:08;;;;;;;1.52;0.80;;;8.10;61.60;;;3.33;87.34;94890.06;4984524;28;20056;-58
2024/01/02 03:19:34;;;;;;;1.58;0.75;;;8.20;61.50;;;3.36;87.38;94894.06;4982528;28;20504;-57
2024/01/02 03:22:00;;;;;;;1.55;0.60;;;8.20;61.50;;;3.36;88.09;94889.59;4975821;28;20465;-54
2024/01/02 03:24:25;;;;;;;0.65;0.57;;;8.20;61.50;;;3.36;87.24;94879.06;4983137;28;20068;-55
2024/01/02 03:26:51;;;;;;;1.33;0.80;;;8.20;61.40;;;3.38;86.01;94879.59;4978438;28;20159;-54
2024/01/02 03:29:17;;;;;;;2.15;0.80;;;8.30;61.20;;;3.42;86.02;94877.31;4991410;28;20495;-56
2024/01/02 03:31:44;;;;;;;2.25;0.90;;;8.30;61.10;;;3.44;85.49;94886.56;4978402;28;20026;-56
2024/01/02 03:34:11;;;;;;;2.47;0.60;;;8.30;61.00;;;3.48;85.36;94879.00;4990525;28;20436;-57
2024/01/02 03:36:37;;;;;;;1.38;0.70;;;8.30;60.90;;;3.51;84.56;94880.34;4986145;28;20029;-55
2024/01/02 03:39:04;;;;;;;1.25;0.73;;;8.40;60.90;;;3.53;85.24;94873.03;4982764;28;20041;-56
2024/01/02 03:41:30;;;;;;;0.80;0.60;;;8.40;60.70;;;3.51;85.69;94878.53;5001166;28;20026;-54
2024/01/02 03:43:56;;;;;;;0.60;0.60;;;8.40;60.70;;;3.46;85.12;94873.19;4986016;28;20071;-56
2024/01/02 03:46:22;;;;;;;1.05;0.60;;;8.40;60.50;;;3.41;84.28;94870.44;4986680;28;20377;-54
2024/01/02 03:48:48;;;;;;;2.45;0.65;;;8.40;60.40;;;3.42;84.55;94864.97;4976428;28;20038;-55
2024/01/02 03:51:13;;;;;;;0.63;0.60;;;8.40;60.40;;;3.41;85.77;94860.72;4981589;28;20064;-55
2024/01/02 03:53:39;;;;;;;0.50;0.50;;;8.40;61.10;;;3.38;84.62;94858.53;4981391;28;20025;-56
2024/01/02 03:56:05;;;;;;;1.08;0.60;;;8.40;60.30;;;3.38;85.35;94855.13;4986905;28;20032;-55
2024/01/02 03:58:31;;;;;;;1.30;0.60;;;8.40;60.30;;;3.34;84.44;94854.00;4991284;28;20022;-58
2024/01/02 04:00:57;;;;;;;1.23;0.80;;;8.40;60.20;;;3.36;85.44;94847.47;4987165;28;20026;-57
2024/01/02 04:03:23;;;;;;;0.65;0.50;;;8.40;60.10;;;3.42;84.69;94843.09;4990089;28;20018;-56
2024/01/02 04:05:50;;;;;;;1.63;0.60;;;8.40;60.10;;;3.49;85.31;94835.84;4980606;28;20140;-58
2024/01/02 04:08:16;;;;;;;3.35;0.70;;;8.40;60.10;;;3.52;86.39;94834.56;4976955;28;20052;-55
2024/01/02 04:10:42;;;;;;;0.65;0.63;;;8.40;60.10;;;3.50;85.46;94823.47;4989507;28;20029;-54
2024/01/02 04:13:12;;;;;;;1.00;0.60;;;8.40;60.10;;;3.36;83.49;94815.88;4975749;28;20046;-57
2024/01/02 04:15:38;;;;;;;0.82;0.50;;;8.40;60.00;;;3.34;84.19;94815.31;4988760;28;20068;-57
2024/01/02 04:18:04;;;;;;;1.08;0.68;;;8.40;60.00;;;3.24;83.43;94802.78;4974685;28;20026;-58
2024/01/02 04:20:30;;;;;;;1.02;0.65;;;8.40;59.80;;;3.20;83.72;94814.03;4989387;28;20674;-58
2024/01/02 04:22:59;;;;;;;0.88;0.60;;;8.30;59.80;;;3.19;84.16;94794.78;4991972;28;20018;-53
2024/01/02 04:25:25;;;;;;;3.80;0.50;;;8.30;59.70;;;3.15;83.37;94798.13;4973249;28;20026;-54
2024/01/02 04:27:55;;;;;;;0.77;0.70;;;8.30;59.80;;;3.18;84.50;94800.28;4984305;28;20025;-54
2024/01/02 04:30:22;;;;;;;2.53;0.60;;;8.30;59.70;;;3.20;84.61;94790.34;4979135;28;20507;-56
2024/01/02 04:32:49;;;;;;;1.85;0.95;;;8.20;59.70;;;3.18;85.97;94798.47;4979310;28;20024;-58
2024/01/02 04:35:15;;;;;;;0.60;0.60;;;8.20;59.80;;;3.17;83.20;94783.72;4970302;28;20030;-54
2024/01/02 04:37:42;;;;;;;1.67;0.70;;;8.20;59.70;;;3.20;84.36;94783.25;4983606;28;20030;-53
2024/01/02 04:40:10;;;;;;;0.90;0.60;;;8.20;59.70;;;3.25;84.16;94785.94;4989523;28;20480;-52
2024/01/02 04:42:37;;;;;;;0.60;0.60;;;8.20;59.60;;;3.25;82.45;94772.78;4978060;28;20025;-56
2024/01/02 04:45:05;;;;;;;1.77;0.80;;;8.20;59.60;;;3.31;82.86;94765.75;4985686;28;20034;-55
2024/01/02 04:47:33;;;;;;;0.57;0.50;;;8.20;59.60;;;3.30;82.40;94771.28;4986030;28;20065;-57
2024/01/02 04:50:01;;;;;;;0.65;0.60;;;8.20;59.60;;;3.31;82.05;94767.59;4978470;28;20030;-57
2024/01/02 04:52:27;;;;;;;0.60;0.60;;;8.30;59.50;;;3.33;82.20;94766.34;4977206;28;20407;-54
2024/01/02 04:54:53;;;;;;;0.93;0.60;;;8.30;59.40;;;3.35;81.62;94758.97;4977402;28;20026;-54
2024/01/02 04:57:19;;;;;;;1.13;0.70;;;8.30;59.40;;;3.38;81.86;94758.50;4977195;28;20427;-57
2024/01/02 04:59:48;;;;;;;0.77;0.40;;;8.30;59.40;;;3.41;81.96;94763.28;4991489;28;20108;-54
2024/01/02 05:02:14;;;;;;;0.95;0.63;;;8.30;59.30;;;3.40;81.32;94760.91;4990414;28;20025;-54
2024/01/02 05:04:41;;;;;;;0.82;0.60;;;8.30;59.20;;;3.40;80.81;94759.06;4983590;28;20400;-56
2024/01/02 05:07:07;;;;;;;2.30;0.80;;;8.30;59.10;;;3.41;80.43;94758.03;4986903;28;20030;-56
2024/01/02 05:09:33;;;;;;;2.05;0.60;;;8.30;59.00;;;3.45;79.40;94751.25;4982198;28;20029;-54
2024/01/02 05:11:59;;;;;;;1.20;0.60;;;8.40;59.00;;;3.45;78.90;94745.19;4989219;28;20052;-56
2024/01/02 05:14:25;;;;;;;1.77;0.60;;;8.40;58.90;;;3.51;80.25;94735.53;4973416;28;20037;-51
2024/01/02 05:16:50;;;;;;;1.00;0.70;;;8.40;58.90;;;3.48;80.05;94747.34;4989934;28;20476;-57
2024/01/02 05:19:18;;;;;;;0.70;0.50;;;8.40;58.80;;;3.48;79.34;94729.72;4973720;28;20026;-52
2024/01/02 05:21:44;;;;;;;0.50;0.43;;;8.40;58.70;;;3.51;79.63;94733.72;4987177;28;20021;-54
2024/01/02 05:24:09;;;;;;;1.30;0.60;;;8.40;58.70;;;3.53;79.67;94736.88;4979643;28;20026;-56
2024/01/02 05:26:35;;;;;;;0.75;0.50;;;8.40;58.70;;;3.55;81.61;94731.38;4984564;28;20485;-58
2024/01/02 05:29:01;;;;;;;0.95;0.68;;;8.40;58.70;;;3.46;80.03;94725.72;4981302;28;20034;-58
2024/01/02 05:31:27;;;;;;;0.75;0.52;;;8.40;58.60;;;3.46;79.59;94729.16;4979837;28;20021;-58
2024/01/02 05:33:52;;;;;;;0.73;0.70;;;8.50;58.60;;;3.45;80.14;94726.78;4976493;28;20022;-58
2024/01/02 05:36:18;;;;;;;1.15;0.65;;;8.50;58.50;;;3.44;79.83;94725.94;4980621;28;20032;-57
2024/01/02 05:38:44;;;;;;;1.70;0.70;;;8.40;58.30;;;3.48;79.63;94736.81;4978571;28;20038;-56
2024/01/02 05:41:10;;;;;;;0.90;0.65;;;8.50;58.40;;;3.50;79.30;94740.00;4987351;28;20104;-57
2024/01/02 05:43:36;;;;;;;0.93;0.60;;;8.50;58.30;;;3.56;80.65;94735.59;4984493;28;20032;-55
2024/01/02 05:46:02;;;;;;;0.82;0.60;;;8.50;58.40;;;3.59;79.44;94735.13;4989163;28;20030;-57
2024/01/02 05:48:27;;;;;;;1.05;0.68;;;8.50;58.30;;;3.67;79.83;94743.44;4977518;28;20026;-54
2024/01/02 05:50:53;;;;;;;0.60;0.60;;;8.50;58.30;;;3.72;80.12;94742.69;4976490;28;20040;-55
2024/01/02 05:53:20;;;;;;;1.85;0.68;;;8.60;58.40;;;3.72;79.57;94742.69;4973238;28;20026;-54
2024/01/02 05:55:46;;;;;;;1.10;0.52;;;8.60;58.40;;;3.75;78.93;94739.56;4982071;28;20030;-57
2024/01/02 05:58:11;;;;;;;1.40;0.50;;;8.60;58.30;;;3.82;79.03;94736.75;4983241;28;20382;-58
2024/01/02 06:00:37;;;;;;;2.15;0.73;;;8.60;58.20;;;3.87;78.82;94742.91;5005494;28;20455;-58
2024/01/02 06:03:03;;;;;;;0.70;0.60;;;8.70;58.20;;;3.90;78.91;94742.41;4986395;28;20080;-58
2024/01/02 06:05:29;;;;;;;1.00;0.70;;;8.70;58.20;;;3.94;79.10;94754.06;4982989;28;20061;-58
2024/01/02 06:07:55;;;;;;;0.80;0.60;;;8.70;58.10;;;3.97;77.91;94749.34;4981458;28;20096;-55
2024/01/02 06:10:21;;;;;;;1.40;0.68;;;8.80;58.10;;;4.01;78.10;94747.81;4961065;28;20034;-55
2024/01/02 06:12:47;;;;;;;0.70;0.63;;;8.80;58.00;;;4.07;78.76;94744.22;4983831;28;20045;-55
2024/01/02 06:15:14;;;;;;;2.05;0.80;;;8.90;58.10;;;4.08;79.49;94749.25;4982364;28;20033;-54
2024/01/02 06:17:40;;;;;;;0.75;0.70;;;8.90;58.00;;;4.13;79.45;94745.88;4994360;28;20022;-57
2024/01/02 06:20:09;;;;;;;1.23;0.70;;;8.90;58.00;;;4.17;80.79;94747.78;4996838;28;20029;-55
2024/01/02 06:22:36;;;;;;;0.80;0.60;;;9.00;58.10;;;4.20;80.34;94745.69;4990941;28;20149;-53
2024/01/02 06:25:03;;;;;;;1.52;0.88;;;9.00;58.10;;;4.25;82.03;94732.59;4989911;28;20041;-57
2024/01/02 06:27:29;;;;;;;1.75;0.90;;;9.00;58.10;;;4.38;85.07;94750.66;4983850;28;20550;-58
2024/01/02 06:29:54;;;;;;;1.40;0.85;;;9.10;58.40;;;4.41;87.00;94734.34;4985132;28;20064;-58
2024/01/02 06:32:20;;;;;;;2.17;0.70;;;9.10;58.60;;;4.44;88.98;94736.50;4981229;28;20158;-57
2024/01/02 06:34:46;;;;;;;2.83;0.68;;;9.10;58.80;;;4.47;91.23;94725.47;4985247;28;20038;-58
2024/01/02 06:37:12;;;;;;;0.95;0.70;;;9.10;59.10;;;4.48;93.68;94734.16;4990146;28;20021;-52
2024/01/02 06:39:37;;;;;;;1.33;0.68;;;9.00;59.60;;;4.52;95.28;94724.72;4992496;28;20026;-58
2024/01/02 06:42:04;;;;;;;0.80;0.70;;;9.00;60.20;;;4.50;97.03;94727.59;4991586;28;20140;-57
2024/01/02 06:44:29;;;;;;;1.92;0.70;;;8.90;60.80;;;4.52;98.52;94719.47;4991613;28;20033;-55
2024/01/02 06:46:55;;;;;;;1.25;0.80;;;8.90;61.40;;;4.48;100.00;94727.06;4985812;28;20030;-55
2024/01/02 06:49:21;;;;;;;1.48;0.60;;;8.90;61.80;;;4.47;100.00;94717.56;4979289;28;20022;-53
2024/01/02 06:51:47;;;;;;;1.88;0.75;;;8.80;62.30;;;4.46;100.00;94715.97;4989008;28;20032;-56
2024/01/02 06:54:12;;;;;;;0.65;0.55;;;8.80;63.40;;;4.44;100.00;94698.78;4983814;28;20029;-56
2024/01/02 06:56:38;;;;;;;0.80;0.60;;;8.80;63.00;;;4.46;100.00;94702.78;4991810;28;20037;-58
2024/01/02 06:59:04;;;;;;;2.75;0.80;;;8.80;63.50;;;4.47;100.00;94693.81;4982022;28;20033;-53
2024/01/02 07:01:30;;;;;;;0.77;0.60;;;8.80;63.80;;;4.48;100.00;94716.53;4978767;28;20045;-54
2024/01/02 07:03:56;;;;;;;1.27;0.70;;;8.70;64.00;;;4.49;100.00;94712.03;4986427;28;20022;-57
2024/01/02 07:06:22;;;;;;;0.90;0.60;;;8.70;64.30;;;4.47;100.00;94717.56;4982794;28;20034;-58
2024/01/02 07:08:48;;;;;;;0.98;0.65;;;8.70;64.60;;;4.51;100.00;94720.47;4979495;28;20022;-56
2024/01/02 07:11:14;;;;;;;1.63;0.63;;;8.70;64.70;;;4.48;100.00;94716.53;4993017;28;20080;-57
2024/01/02 07:13:40;;;;;;;1.35;0.60;;;8.70;64.80;;;4.47;100.00;94714.13;4978479;28;20026;-58
2024/01/02 07:16:06;;;;;;;1.67;0.70;;;8.80;64.90;;;4.48;100.00;94724.44;4986132;28;20018;-57
2024/01/02 07:18:33;;;;;;;1.85;0.65;;;8.80;64.90;;;4.50;100.00;94727.59;4975468;28;20563;-58
2024/01/02 07:20:59;;;;;;;0.73;0.63;;;8.80;65.00;;;4.52;100.00;94730.00;4989160;28;20388;-57
2024/01/02 07:23:24;;;;;;;0.90;0.65;;;8.80;64.90;;;4.53;100.00;94736.88;4988708;28;20022;-56
2024/01/02 07:25:51;;;;;;;1.33;0.80;;;8.90;64.90;;;4.52;100.00;94730.00;4992336;28;20034;-56
2024/01/02 07:28:17;;;;;;;0.63;0.50;;;8.90;64.90;;;4.52;100.00;94735.28;4982008;28;20504;-55
2024/01/02 07:30:43;;;;;;;2.47;0.50;;;8.90;64.90;;;4.52;100.00;94730.81;4988020;28;20034;-55
2024/01/02 07:33:09;;;;;;;1.48;0.70;;;9.00;65.00;;;4.52;100.00;94730.81;4982126;28;20034;-55
2024/01/02 07:35:34;;;;;;;0.70;0.70;;;9.00;65.00;;;4.53;100.00;94736.88;4988211;28;20025;-57
2024/01/02 07:38:00;;;;;;;0.75;0.75;;;9.10;65.10;;;4.56;100.00;94744.28;4989255;28;20018;-55
2024/01/02 07:40:26;;;;;;;0.70;0.70;;;9.10;64.90;;;4.56;100.00;94733.75;4986381;28;20053;-55
2024/01/02 07:42:52;;;;;;;1.75;0.70;;;9.10;64.80;;;4.58;100.00;94742.22;4984475;28;20480;-57
2024/01/02 07:45:18;;;;;;;1.38;0.70;;;9.10;64.70;;;4.59;100.00;94733.25;4982937;28;20041;-53
2024/01/02 07:47:43;;;;;;;0.70;0.52;;;9.20;64.80;;;4.59;100.00;94728.75;4983430;28;20028;-55
2024/01/02 07:50:09;;;;;;;0.63;0.60;;;9.20;64.70;;;4.61;100.00;94744.34;4975084;28;20034;-56
2024/01/02 07:52:37;;;;;;;1.17;0.60;;;9.30;64.70;;;4.59;100.00;94747.22;4984838;28;20048;-58
2024/01/02 07:55:04;;;;;;;0.95;0.73;;;9.30;64.70;;;4.62;100.00;94736.19;4988452;28;20116;-56
2024/01/02 07:57:29;;;;;;;2.38;0.70;;;9.30;65.50;;;4.63;100.00;94739.63;4990364;28;20022;-56
2024/01/02 07:59:55;;;;;;;0.80;0.68;;;9.30;64.70;;;4.61;100.00;94731.16;4983085;28;20037;-55
2024/01/02 08:02:21;;;;;;;2.03;0.65;;;9.40;64.80;;;4.65;100.00;94729.63;4984522;28;20022;-56
2024/01/02 08:04:47;;;;;;;0.70;0.60;;;9.40;64.80;;;4.63;100.00;94737.75;4985391;28;20034;-55
2024/01/02 08:07:13;;;;;;;3.08;0.70;;;9.40;64.80;;;4.65;100.00;94740.16;4999139;28;20021;-57
2024/01/02 08:09:39;;;;;;;1.25;0.75;;;9.40;64.70;;;4.70;100.00;94724.41;4985815;28;20033;-55
2024/01/02 08:12:05;;;;;;;2.15;0.60;;;9.50;64.70;;;4.71;100.00;94739.19;4989635;28;20042;-55
2024/01/02 08:14:31;;;;;;;1.15;0.70;;;9.50;64.70;;;4.75;100.00;94742.91;4975710;28;20112;-55
2024/01/02 08:16:57;;;;;;;0.60;0.57;;;9.50;64.60;;;4.74;100.00;94743.16;4990476;28;20484;-51
2024/01/02 08:19:22;;;;;;;0.70;0.57;;;9.60;64.60;;;4.74;100.00;94738.69;4977268;28;20030;-54
2024/01/02 08:21:48;;;;;;;0.70;0.70;;;9.60;64.70;;;4.79;100.00;94743.22;4985852;28;20044;-55
2024/01/02 08:24:14;;;;;;;2.33;0.60;;;9.60;64.60;;;4.78;100.00;94746.91;4985456;28;20026;-54
2024/01/02 08:26:40;;;;;;;2.00;0.57;;;9.60;64.60;;;4.80;100.00;94740.34;4978668;28;20434;-54
2024/01/02 08:29:06;;;;;;;0.88;0.45;;;9.60;64.60;;;4.79;100.00;94754.56;4988813;28;20026;-55
2024/01/02 08:31:31;;;;;;;0.70;0.70;;;9.70;64.50;;;4.83;100.00;94753.03;4985236;28;20022;-54
2024/01/02 08:33:57;;;;;;;1.45;0.60;;;9.70;64.50;;;4.85;100.00;94748.28;4980043;28;20072;-57
2024/01/02 08:36:23;;;;;;;0.70;0.60;;;9.70;64.40;;;4.90;100.00;94752.03;4975983;28;20026;-56
2024/01/02 08:38:49;;;;;;;1.33;0.60;;;9.70;64.40;;;4.92;100.00;94749.94;4980682;28;20112;-54
2024/01/02 08:41:15;;;;;;;1.42;0.60;;;9.70;64.40;;;4.92;100.00;94745.47;4987891;28;20034;-58
2024/01/02 08:43:41;;;;;;;0.60;0.50;;;9.80;64.40;;;4.99;100.00;94743.44;4984554;28;20033;-56
2024/01/02 08:46:07;;;;;;;0.98;0.60;;;9.80;64.40;;;4.98;100.00;94739.19;4983741;28;20168;-53
2024/01/02 08:48:34;;;;;;;2.35;0.75;;;9.90;64.30;;;5.00;100.00;94739.72;4989941;28;20411;-58
2024/01/02 08:51:00;;;;;;;2.15;1.20;;;9.90;64.20;;;5.06;100.00;94746.66;4981546;28;20080;-57
2024/01/02 08:53:25;;;;;;;2.00;0.90;;;9.90;64.20;;;5.07;100.00;94745.59;4980625;28;20493;-57
2024/01/02 08:55:51;;;;;;;1.25;0.70;;;9.90;64.10;;;5.17;100.00;94750.19;4990149;28;20427;-55
2024/01/02 08:58:18;;;;;;;1.40;0.70;;;10.00;64.10;;;5.23;100.00;94748.38;4945379;28;25782;-57
2024/01/02 09:00:44;;;;;;;3.55;1.10;;;10.00;64.00;;;5.23;100.00;94751.84;4975957;28;20030;-56
2024/01/02 09:03:09;;;;;;;1.42;0.95;;;10.10;64.00;;;5.23;100.00;94743.09;4979788;28;20025;-55
2024/01/02 09:05:36;;;;;;;0.57;0.57;;;10.10;63.90;;;5.23;100.00;94762.41;4988883;28;20060;-55
2024/01/02 09:08:04;;;;;;;0.70;0.60;;;10.10;63.80;;;5.29;100.00;94758.72;4982824;28;20156;-55
2024/01/02 09:10:30;;;;;;;1.17;0.60;;;10.20;63.80;;;5.28;100.00;94762.44;4983969;28;20036;-54
2024/01/02 09:12:56;;;;;;;0.70;0.70;;;10.20;63.70;;;5.32;100.00;94749.50;4978232;28;20045;-53
2024/01/02 09:15:22;;;;;;;0.98;0.60;;;10.20;63.70;;;5.34;100.00;94756.13;4978792;28;20091;-56
2024/01/02 09:17:48;;;;;;;0.70;0.70;;;10.20;63.70;;;5.36;100.00;94763.81;4983658;28;20110;-54
2024/01/02 09:20:14;;;;;;;0.93;0.70;;;10.20;63.70;;;5.36;100.00;94765.66;4985641;28;20032;-56
2024/01/02 09:22:39;;;;;;;0.52;0.52;;;10.20;63.80;;;5.32;100.00;94766.16;4983692;28;20081;-54
2024/01/02 09:25:10;;;;;;;0.98;0.75;;;10.20;64.00;;;5.38;100.00;94766.19;4978208;28;20037;-52
2024/01/02 09:27:37;;;;;;;0.52;0.50;;;10.20;64.10;;;5.36;100.00;94768.28;4978178;28;20131;-54
2024/01/02 09:30:05;;;;;;;0.85;0.70;;;10.20;64.40;;;5.39;100.00;94763.31;4989179;28;20026;-51
2024/01/02 09:32:32;;;;;;;0.88;0.60;;;10.10;64.60;;;5.41;100.00;94773.63;4978788;28;20025;-55
2024/01/02 09:34:58;;;;;;;0.80;0.63;;;10.10;64.90;;;5.37;100.00;94762.78;4986436;28;20034;-55
2024/01/02 09:37:24;;;;;;;1.65;1.10;;;10.10;65.00;;;5.34;100.00;94766.72;4990213;28;20018;-55
2024/01/02 09:39:53;;;;;;;1.70;0.90;;;10.10;65.30;;;5.32;100.00;94760.06;4972048;28;20120;-52
2024/01/02 09:43:00;;;;;;;1.60;0.60;;;10.10;65.50;;;5.38;100.00;94758.28;4990390;28;20057;-56
2024/01/02 09:46:01;;;;;;;0.70;0.70;;;10.10;65.80;;;5.43;100.00;94751.19;4988120;28;20029;-53
2024/01/02 09:49:14;;;;;;;0.90;0.63;;;10.10;66.00;;;5.48;100.00;94753.06;4972720;28;20034;-54
2024/01/02 09:52:03;;;;;;;2.08;0.60;;;10.00;66.00;;;5.45;100.00;94754.41;4977137;28;20061;-53
2024/01/02 09:55:02;;;;;;;0.63;0.63;;;10.10;66.20;;;5.48;100.00;94751.22;4978758;28;20130;-53
2024/01/02 09:58:10;;;;;;;0.40;0.40;;;10.10;66.20;;;5.47;100.00;94746.22;4980997;28;20034;-54
2024/01/02 10:01:12;;;;;;;0.80;0.70;;;10.10;66.30;;;5.51;100.00;94737.50;4979161;28;20024;-54
2024/01/02 10:04:32;;;;;;;2.95;0.88;;;10.20;66.40;;;5.56;100.00;94734.91;4977397;28;20116;-51
2024/01/02 10:08:21;;;;;;;1.05;0.60;;;10.20;66.40;;;5.54;100.00;94729.09;4980741;28;20504;-52
2024/01/02 10:11:40;;;;;;;1.02;0.60;;;10.30;66.40;;;5.64;100.00;94719.63;4981290;28;20049;-56
2024/01/02 10:14:31;;;;;;;0.60;0.50;;;10.40;66.50;;;5.71;100.00;94721.03;4980405;28;20561;-55
2024/01/02 10:17:50;;;;;;;0.47;0.47;;;10.40;66.50;;;5.75;100.00;94710.72;4980257;28;20132;-54
2024/01/02 10:21:13;;;;;;;0.75;0.73;;;10.40;66.40;;;5.79;100.00;94702.03;4975205;28;20116;-52
2024/01/02 10:24:31;;;;;;;0.70;0.67;;;10.60;66.50;;;5.89;100.00;94711.88;4982013;28;20037;-53
2024/01/02 10:27:12;;;;;;;0.60;0.57;;;10.60;66.40;;;5.97;100.00;94697.41;4941719;28;20054;-58
2024/01/02 10:30:11;;;;;;;0.70;0.70;;;10.80;66.40;;;6.03;100.00;94699.03;4975158;28;20021;-56
2024/01/02 10:33:27;;;;;;;1.33;0.98;;;10.90;66.30;;;6.13;100.00;94688.50;4996006;28;20025;-56
2024/01/02 10:36:03;;;;;;;0.88;0.82;;;11.00;66.10;;;6.19;100.00;94686.66;4994618;28;20042;-52